createdAt,value
2023-02-06T00:01:08.177Z,6.73
2023-02-06T00:03:43.679Z,6.37
2023-02-06T00:06:23.836Z,6.60
2023-02-06T00:08:57.359Z,6.30
2023-02-06T00:11:31.392Z,6.90
2023-02-06T00:14:07.144Z,7.30
2023-02-06T00:16:42.346Z,7.93
2023-02-06T00:19:15.314Z,6.27
2023-02-06T00:21:49.477Z,6.90
2023-02-06T00:24:27.260Z,7.57
2023-02-06T00:27:00.112Z,7.70
2023-02-06T00:29:37.918Z,7.43
2023-02-06T00:32:10.781Z,6.87
2023-02-06T00:34:46.396Z,7.87
2023-02-06T00:37:20.616Z,6.93
2023-02-06T00:39:53.635Z,7.23
2023-02-06T00:42:26.754Z,8.50
2023-02-06T00:44:59.746Z,7.70
2023-02-06T00:47:32.562Z,8.90
2023-02-06T00:50:06.012Z,7.93
2023-02-06T00:52:40.393Z,7.83
2023-02-06T00:55:13.244Z,7.63
2023-02-06T00:57:46.416Z,7.80
2023-02-06T01:00:19.823Z,7.70
2023-02-06T01:02:52.828Z,8.13
2023-02-06T01:05:26.159Z,8.53
2023-02-06T01:08:01.486Z,8.23
2023-02-06T01:10:39.225Z,8.30
2023-02-06T01:13:12.628Z,8.33
2023-02-06T01:15:45.622Z,8.97
2023-02-06T01:18:18.591Z,8.73
2023-02-06T01:20:58.587Z,9.47
2023-02-06T01:23:33.170Z,8.80
2023-02-06T01:26:07.100Z,9.33
2023-02-06T01:28:40.612Z,8.03
2023-02-06T01:31:14.170Z,9.13
2023-02-06T01:33:48.009Z,8.63
2023-02-06T01:36:23.549Z,9.37
2023-02-06T01:38:58.019Z,9.57
2023-02-06T01:41:33.273Z,9.13
2023-02-06T01:44:11.679Z,8.50
2023-02-06T01:46:45.262Z,9.17
2023-02-06T01:49:24.815Z,9.43
2023-02-06T01:51:59.267Z,8.33
2023-02-06T01:54:33.572Z,9.13
2023-02-06T01:57:08.230Z,8.67
2023-02-06T01:59:43.127Z,8.07
2023-02-06T02:02:16.126Z,8.47
2023-02-06T02:04:49.565Z,8.27
2023-02-06T02:07:24.304Z,8.57
2023-02-06T02:09:58.610Z,9.27
2023-02-06T02:12:31.433Z,8.70
2023-02-06T02:15:05.098Z,8.23
2023-02-06T02:17:41.145Z,7.67
2023-02-06T02:20:31.595Z,8.50
2023-02-06T02:23:14.890Z,9.00
2023-02-06T02:26:05.657Z,8.33
2023-02-06T02:28:56.984Z,8.17
2023-02-06T02:31:40.868Z,7.93
2023-02-06T02:34:34.321Z,8.07
2023-02-06T02:37:11.691Z,7.87
2023-02-06T02:39:47.049Z,8.37
2023-02-06T02:42:24.421Z,7.87
2023-02-06T02:45:05.181Z,7.60
2023-02-06T02:47:42.610Z,7.00
2023-02-06T02:50:17.910Z,6.83
2023-02-06T02:52:50.899Z,7.03
2023-02-06T02:55:24.342Z,7.40
2023-02-06T02:57:59.196Z,7.43
2023-02-06T03:00:32.594Z,8.63
2023-02-06T03:03:11.062Z,7.07
2023-02-06T03:05:49.502Z,7.20
2023-02-06T03:08:30.196Z,7.30
2023-02-06T03:11:10.264Z,7.10
2023-02-06T03:13:45.680Z,6.83
2023-02-06T03:16:22.182Z,7.20
2023-02-06T03:18:58.551Z,8.60
2023-02-06T03:21:33.783Z,7.57
2023-02-06T03:24:09.282Z,7.43
2023-02-06T03:26:43.047Z,7.30
2023-02-06T03:29:17.367Z,7.17
2023-02-06T03:31:55.165Z,7.20
2023-02-06T03:34:32.677Z,6.73
2023-02-06T03:37:06.965Z,6.20
2023-02-06T03:39:40.075Z,6.67
2023-02-06T03:42:15.673Z,7.20
2023-02-06T03:44:50.928Z,7.20
2023-02-06T03:47:25.290Z,5.93
2023-02-06T03:50:00.038Z,6.10
2023-02-06T03:52:36.305Z,6.90
2023-02-06T03:55:10.914Z,6.40
2023-02-06T03:57:48.438Z,6.23
2023-02-06T04:00:21.535Z,6.33
2023-02-06T04:02:56.911Z,6.23
2023-02-06T04:05:32.260Z,6.57
2023-02-06T04:08:07.109Z,5.97
2023-02-06T04:10:40.341Z,6.07
2023-02-06T04:13:15.472Z,7.13
2023-02-06T04:15:51.639Z,6.37
2023-02-06T04:18:27.598Z,5.90
2023-02-06T04:21:04.344Z,6.23
2023-02-06T04:23:38.666Z,6.37
2023-02-06T04:26:11.950Z,5.93
2023-02-06T04:28:44.787Z,6.20
2023-02-06T04:31:17.825Z,6.17
2023-02-06T04:33:51.251Z,5.47
2023-02-06T04:36:24.082Z,5.63
2023-02-06T04:38:59.628Z,5.73
2023-02-06T04:41:32.540Z,5.20
2023-02-06T04:44:05.781Z,5.73
2023-02-06T04:46:40.359Z,5.37
2023-02-06T04:49:13.489Z,5.40
2023-02-06T04:51:46.416Z,4.90
2023-02-06T04:54:20.662Z,5.63
2023-02-06T04:56:53.836Z,5.80
2023-02-06T04:59:26.817Z,5.63
2023-02-06T05:02:05.595Z,5.63
2023-02-06T05:04:39.258Z,5.77
2023-02-06T05:07:12.169Z,5.87
2023-02-06T05:09:46.607Z,5.73
2023-02-06T05:12:19.859Z,5.83
2023-02-06T05:14:55.805Z,6.40
2023-02-06T05:17:28.818Z,6.40
2023-02-06T05:20:02.052Z,6.67
2023-02-06T05:22:35.104Z,6.50
2023-02-06T05:25:11.155Z,6.93
2023-02-06T05:27:45.252Z,7.17
2023-02-06T05:30:18.838Z,7.03
2023-02-06T05:32:51.903Z,7.33
2023-02-06T05:35:25.509Z,7.10
2023-02-06T05:38:01.763Z,6.63
2023-02-06T05:40:36.056Z,7.20
2023-02-06T05:43:09.047Z,7.57
2023-02-06T05:45:42.322Z,6.37
2023-02-06T05:48:15.620Z,7.77
2023-02-06T05:50:49.524Z,7.30
2023-02-06T05:53:22.508Z,8.13
2023-02-06T05:55:57.225Z,7.80
2023-02-06T05:58:30.010Z,8.77
2023-02-06T06:01:02.905Z,8.40
2023-02-06T06:03:38.129Z,7.70
2023-02-06T06:06:11.312Z,7.17
2023-02-06T06:08:44.316Z,8.40
2023-02-06T06:11:18.696Z,8.47
2023-02-06T06:13:51.658Z,8.37
2023-02-06T06:16:24.878Z,8.93
2023-02-06T06:19:02.817Z,8.67
2023-02-06T06:21:38.723Z,9.60
2023-02-06T06:24:11.780Z,9.73
2023-02-06T06:26:50.474Z,9.27
2023-02-06T06:29:24.480Z,8.53
2023-02-06T06:31:57.539Z,9.80
2023-02-06T06:34:33.412Z,10.27
2023-02-06T06:37:10.130Z,9.93
2023-02-06T06:39:43.088Z,9.87
2023-02-06T06:42:18.979Z,9.60
2023-02-06T06:44:52.205Z,9.63
2023-02-06T06:47:25.344Z,9.70
2023-02-06T06:49:58.282Z,9.67
2023-02-06T06:52:31.640Z,8.77
2023-02-06T06:55:04.681Z,9.03
2023-02-06T06:57:42.930Z,10.53
2023-02-06T07:00:16.698Z,10.03
2023-02-06T07:02:49.721Z,10.50
2023-02-06T07:05:24.789Z,10.93
2023-02-06T07:07:57.902Z,10.07
2023-02-06T07:10:30.862Z,11.37
2023-02-06T07:13:05.608Z,11.33
2023-02-06T07:15:41.702Z,11.37
2023-02-06T07:18:14.975Z,11.83
2023-02-06T07:20:48.327Z,10.80
2023-02-06T07:23:22.173Z,12.47
2023-02-06T07:25:56.587Z,11.43
2023-02-06T07:28:32.604Z,12.57
2023-02-06T07:31:06.730Z,12.27
2023-02-06T07:33:40.540Z,10.97
2023-02-06T07:36:16.130Z,12.30
2023-02-06T07:38:49.118Z,11.93
2023-02-06T07:41:22.134Z,11.83
2023-02-06T07:43:56.631Z,12.53
2023-02-06T07:46:29.652Z,12.10
2023-02-06T07:49:03.817Z,11.67
2023-02-06T07:51:36.645Z,11.37
2023-02-06T07:54:10.043Z,11.40
2023-02-06T07:56:43.311Z,12.03
2023-02-06T07:59:17.985Z,10.97
2023-02-06T08:01:51.118Z,11.70
2023-02-06T08:04:24.128Z,12.30
2023-02-06T08:06:57.329Z,11.93
2023-02-06T08:09:30.364Z,11.70
2023-02-06T08:12:06.487Z,12.43
2023-02-06T08:14:41.156Z,11.70
2023-02-06T08:17:19.821Z,11.93
2023-02-06T08:19:53.110Z,13.07
2023-02-06T08:22:26.511Z,11.80
2023-02-06T08:24:59.737Z,14.13
2023-02-06T08:27:32.994Z,11.97
2023-02-06T08:30:08.820Z,13.00
2023-02-06T08:32:41.767Z,12.40
2023-02-06T08:35:19.190Z,12.00
2023-02-06T08:37:52.186Z,11.87
2023-02-06T08:40:27.365Z,11.90
2023-02-06T08:43:00.424Z,12.63
2023-02-06T08:45:35.240Z,13.70
2023-02-06T08:48:08.660Z,12.87
2023-02-06T08:50:42.295Z,12.77
2023-02-06T08:53:15.712Z,13.20
2023-02-06T08:55:49.026Z,13.97
2023-02-06T08:58:22.130Z,13.70
2023-02-06T09:00:56.800Z,13.60
2023-02-06T09:03:29.750Z,15.47
2023-02-06T09:06:09.682Z,13.60
2023-02-06T09:08:43.609Z,13.97
2023-02-06T09:11:17.287Z,13.57
2023-02-06T09:13:52.964Z,15.00
2023-02-06T09:16:28.396Z,15.23
2023-02-06T09:19:04.421Z,13.37
2023-02-06T09:21:37.810Z,14.93
2023-02-06T09:24:10.965Z,16.13
2023-02-06T09:26:58.447Z,15.63
2023-02-06T09:29:32.767Z,15.63
2023-02-06T09:32:11.138Z,15.57
2023-02-06T09:34:45.781Z,16.17
2023-02-06T09:37:19.456Z,15.87
2023-02-06T09:39:52.408Z,15.23
2023-02-06T09:42:29.690Z,15.80
2023-02-06T09:45:06.735Z,16.50
2023-02-06T09:47:42.540Z,15.07
2023-02-06T09:50:23.580Z,15.87
2023-02-06T09:53:06.407Z,12.77
2023-02-06T09:55:43.737Z,14.60
2023-02-06T09:58:22.760Z,14.47
2023-02-06T10:00:59.842Z,14.57
2023-02-06T10:03:53.968Z,13.20
2023-02-06T10:06:30.350Z,14.43
2023-02-06T10:09:04.624Z,15.33
2023-02-06T10:11:42.669Z,14.77
2023-02-06T10:14:19.243Z,15.00
2023-02-06T10:17:00.424Z,16.27
2023-02-06T10:19:41.083Z,15.53
2023-02-06T10:22:17.066Z,14.50
2023-02-06T10:24:53.976Z,16.00
2023-02-06T10:27:27.896Z,15.33
2023-02-06T10:30:01.743Z,13.13
2023-02-06T10:32:43.119Z,14.90
2023-02-06T10:35:39.725Z,14.47
2023-02-06T10:38:26.879Z,15.80
2023-02-06T10:41:04.778Z,15.73
2023-02-06T10:43:41.898Z,14.50
2023-02-06T10:46:25.987Z,13.43
2023-02-06T10:49:01.794Z,14.17
2023-02-06T10:51:36.584Z,12.90
2023-02-06T10:54:14.987Z,13.77
2023-02-06T10:56:48.762Z,15.37
2023-02-06T10:59:33.725Z,15.70
2023-02-06T11:02:16.528Z,14.37
2023-02-06T11:04:54.002Z,15.83
2023-02-06T11:07:28.889Z,14.30
2023-02-06T11:10:03.433Z,13.40
2023-02-06T11:12:38.588Z,11.90
2023-02-06T11:15:19.336Z,12.20
2023-02-06T11:17:53.976Z,13.83
2023-02-06T11:20:29.487Z,13.00
2023-02-06T11:23:15.561Z,12.53
2023-02-06T11:25:53.450Z,12.30
2023-02-06T11:28:26.820Z,13.10
2023-02-06T11:31:01.065Z,13.60
2023-02-06T11:33:47.401Z,13.00
2023-02-06T11:36:23.711Z,15.00
2023-02-06T11:38:58.393Z,14.23
2023-02-06T11:41:33.331Z,14.03
2023-02-06T11:44:07.497Z,13.53
2023-02-06T11:46:40.428Z,14.23
2023-02-06T11:49:24.599Z,13.60
2023-02-06T11:51:59.928Z,15.30
2023-02-06T11:54:35.663Z,17.73
2023-02-06T11:57:22.039Z,17.10
2023-02-06T11:59:59.454Z,16.13
2023-02-06T12:02:34.815Z,14.43
2023-02-06T12:05:12.004Z,14.83
2023-02-06T12:07:47.583Z,15.50
2023-02-06T12:10:24.587Z,15.20
2023-02-06T12:13:02.461Z,14.97
2023-02-06T12:15:47.060Z,16.30
2023-02-06T12:18:27.053Z,13.30
2023-02-06T12:21:01.341Z,14.80
2023-02-06T12:23:36.955Z,16.63
2023-02-06T12:26:12.561Z,15.37
2023-02-06T12:28:52.023Z,14.30
2023-02-06T12:31:32.463Z,15.37
2023-02-06T12:34:13.213Z,15.50
2023-02-06T12:37:09.179Z,15.93
2023-02-06T12:39:45.764Z,16.83
2023-02-06T12:42:32.242Z,15.57
2023-02-06T12:45:16.129Z,14.73
2023-02-06T12:47:55.761Z,16.27
2023-02-06T12:50:30.266Z,16.20
2023-02-06T12:53:05.948Z,21.50
2023-02-06T12:55:41.155Z,16.00
2023-02-06T12:58:25.218Z,16.37
2023-02-06T13:01:28.858Z,15.67
2023-02-06T13:04:07.849Z,14.70
2023-02-06T13:06:47.522Z,15.10
2023-02-06T13:09:22.600Z,15.33
2023-02-06T13:12:08.499Z,16.30
2023-02-06T13:14:47.231Z,14.73
2023-02-06T13:17:25.491Z,14.93
2023-02-06T13:20:03.275Z,15.23
2023-02-06T13:22:54.080Z,16.03
2023-02-06T13:25:54.348Z,15.07
2023-02-06T13:28:45.994Z,15.10
2023-02-06T13:31:27.084Z,14.50
2023-02-06T13:34:02.957Z,15.07
2023-02-06T13:36:50.037Z,14.53
2023-02-06T13:39:25.003Z,16.57
2023-02-06T13:42:00.523Z,16.40
2023-02-06T13:44:37.055Z,16.13
2023-02-06T13:47:32.347Z,15.20
2023-02-06T13:50:20.437Z,18.33
2023-02-06T13:53:09.841Z,16.60
2023-02-06T13:56:04.722Z,19.20
2023-02-06T13:58:42.509Z,17.10
2023-02-06T14:01:17.262Z,14.80
2023-02-06T14:03:54.429Z,16.07
2023-02-06T14:06:43.787Z,14.33
2023-02-06T14:09:30.841Z,13.60
2023-02-06T14:12:27.344Z,12.60
2023-02-06T14:15:05.842Z,13.63
2023-02-06T14:17:48.006Z,13.90
2023-02-06T14:20:34.287Z,12.60
2023-02-06T14:23:31.390Z,12.97
2023-02-06T14:26:11.741Z,12.83
2023-02-06T14:28:48.402Z,14.13
2023-02-06T14:31:30.018Z,13.33
2023-02-06T14:34:10.214Z,14.20
2023-02-06T14:36:55.594Z,14.03
2023-02-06T14:39:41.550Z,14.40
2023-02-06T14:42:40.521Z,15.03
2023-02-06T14:45:30.562Z,14.00
2023-02-06T14:48:26.937Z,12.90
2023-02-06T14:51:00.530Z,13.43
2023-02-06T14:53:36.076Z,13.27
2023-02-06T14:56:11.272Z,19.83
2023-02-06T14:58:46.668Z,11.83
2023-02-06T15:01:22.232Z,13.00
2023-02-06T15:04:10.668Z,12.00
2023-02-06T15:06:48.295Z,11.93
2023-02-06T15:09:26.034Z,12.47
2023-02-06T15:12:23.441Z,11.83
2023-02-06T15:15:24.309Z,11.77
2023-02-06T15:17:58.058Z,12.27
2023-02-06T15:20:37.432Z,10.90
2023-02-06T15:23:22.249Z,11.27
2023-02-06T15:26:05.647Z,11.83
2023-02-06T15:28:55.975Z,12.83
2023-02-06T15:31:34.260Z,12.70
2023-02-06T15:34:18.611Z,13.27
2023-02-06T15:37:04.808Z,13.30
2023-02-06T15:39:52.355Z,15.70
2023-02-06T15:42:38.362Z,13.53
2023-02-06T15:45:21.712Z,13.17
2023-02-06T15:47:57.480Z,14.33
2023-02-06T15:50:30.328Z,13.77
2023-02-06T15:53:20.372Z,15.07
2023-02-06T15:55:54.072Z,13.37
2023-02-06T15:58:27.392Z,13.73
2023-02-06T16:01:05.997Z,13.40
2023-02-06T16:03:46.235Z,13.50
2023-02-06T16:06:21.967Z,13.70
2023-02-06T16:08:57.587Z,12.70
2023-02-06T16:11:50.509Z,13.70
2023-02-06T16:14:31.756Z,13.10
2023-02-06T16:17:24.488Z,13.80
2023-02-06T16:20:00.279Z,13.10
2023-02-06T16:22:37.785Z,13.57
2023-02-06T16:25:19.014Z,12.50
2023-02-06T16:27:55.438Z,12.83
2023-02-06T16:30:36.991Z,13.67
2023-02-06T16:33:16.610Z,12.90
2023-02-06T16:35:51.929Z,12.63
2023-02-06T16:38:29.708Z,12.50
2023-02-06T16:41:12.470Z,12.03
2023-02-06T16:43:45.754Z,12.43
2023-02-06T16:46:19.071Z,12.60
2023-02-06T16:48:52.280Z,11.83
2023-02-06T16:51:33.851Z,12.80
2023-02-06T16:54:07.637Z,12.57
2023-02-06T16:56:40.877Z,17.33
2023-02-06T16:59:14.421Z,12.87
2023-02-06T17:01:50.195Z,13.93
2023-02-06T17:04:25.396Z,13.03
2023-02-06T17:07:17.054Z,13.67
2023-02-06T17:09:51.172Z,12.97
2023-02-06T17:12:29.910Z,13.70
2023-02-06T17:15:08.377Z,13.27
2023-02-06T17:17:48.494Z,13.30
2023-02-06T17:20:35.304Z,13.93
2023-02-06T17:23:17.375Z,13.70
2023-02-06T17:25:51.136Z,14.07
2023-02-06T17:28:30.133Z,14.03
2023-02-06T17:31:26.761Z,13.97
2023-02-06T17:34:07.462Z,15.13
2023-02-06T17:36:47.826Z,15.57
2023-02-06T17:39:34.418Z,17.33
2023-02-06T17:42:17.796Z,15.87
2023-02-06T17:45:00.060Z,17.10
2023-02-06T17:47:39.134Z,15.13
2023-02-06T17:50:17.601Z,15.43
2023-02-06T17:52:56.743Z,15.50
2023-02-06T17:55:36.280Z,14.63
2023-02-06T17:58:09.886Z,16.17
2023-02-06T18:00:53.295Z,16.97
2023-02-06T18:03:27.214Z,15.63
2023-02-06T18:06:21.001Z,15.70
2023-02-06T18:09:03.654Z,16.70
2023-02-06T18:11:48.452Z,16.90
2023-02-06T18:14:26.799Z,16.00
2023-02-06T18:17:10.028Z,16.27
2023-02-06T18:19:44.229Z,17.70
2023-02-06T18:22:20.492Z,17.00
2023-02-06T18:24:53.846Z,16.63
2023-02-06T18:27:43.041Z,17.90
2023-02-06T18:30:51.482Z,17.80
2023-02-06T18:33:25.786Z,16.03
2023-02-06T18:36:07.146Z,18.50
2023-02-06T18:39:02.578Z,17.00
2023-02-06T18:41:55.824Z,18.37
2023-02-06T18:44:31.760Z,18.50
2023-02-06T18:50:00.589Z,19.10
2023-02-06T18:52:35.795Z,17.63
2023-02-06T18:55:09.421Z,18.57
2023-02-06T18:57:43.642Z,17.60
2023-02-06T19:00:19.572Z,18.00
2023-02-06T19:02:53.118Z,17.33
2023-02-06T19:05:26.268Z,18.77
2023-02-06T19:07:59.410Z,18.57
2023-02-06T19:10:36.180Z,18.33
2023-02-06T19:13:18.559Z,18.30
2023-02-06T19:16:10.538Z,18.90
2023-02-06T19:18:45.229Z,18.20
2023-02-06T19:21:19.484Z,18.67
2023-02-06T19:23:55.019Z,18.37
2023-02-06T19:26:28.708Z,18.07
2023-02-06T19:29:05.275Z,19.47
2023-02-06T19:31:40.801Z,21.20
2023-02-06T19:34:18.760Z,19.57
2023-02-06T19:36:54.137Z,20.27
2023-02-06T19:39:27.727Z,19.73
2023-02-06T19:42:01.506Z,19.47
2023-02-06T19:44:39.138Z,20.80
2023-02-06T19:47:19.729Z,21.10
2023-02-06T19:49:53.468Z,20.07
2023-02-06T19:52:28.630Z,21.67
2023-02-06T19:55:05.058Z,21.63
2023-02-06T19:57:39.641Z,20.63
2023-02-06T20:00:13.276Z,22.20
2023-02-06T20:02:47.924Z,22.10
2023-02-06T20:05:29.276Z,21.00
2023-02-06T20:08:04.170Z,21.17
2023-02-06T20:10:40.500Z,31.27
2023-02-06T20:13:14.232Z,23.37
2023-02-06T20:15:51.165Z,21.23
2023-02-06T20:18:29.253Z,22.57
2023-02-06T20:21:05.192Z,22.03
2023-02-06T20:23:42.105Z,25.03
2023-02-06T20:26:15.044Z,24.83
2023-02-06T20:28:48.536Z,24.70
2023-02-06T20:31:23.667Z,22.90
2023-02-06T20:33:58.219Z,23.03
2023-02-06T20:36:31.713Z,24.43
2023-02-06T20:39:05.108Z,24.40
2023-02-06T20:41:37.990Z,24.13
2023-02-06T20:44:11.658Z,22.57
2023-02-06T20:46:46.492Z,22.17
2023-02-06T20:49:24.897Z,22.73
2023-02-06T20:52:03.886Z,23.93
2023-02-06T20:54:40.599Z,24.13
2023-02-06T20:57:23.696Z,24.33
2023-02-06T21:00:01.287Z,24.93
2023-02-06T21:02:44.656Z,25.83
2023-02-06T21:05:19.533Z,25.40
2023-02-06T21:07:52.488Z,24.90
2023-02-06T21:10:25.878Z,24.37
2023-02-06T21:12:58.852Z,25.57
2023-02-06T21:15:34.097Z,26.07
2023-02-06T21:18:11.634Z,26.30
2023-02-06T21:20:46.067Z,24.50
2023-02-06T21:23:19.212Z,24.00
2023-02-06T21:25:52.404Z,24.60
2023-02-06T21:28:25.617Z,24.93
2023-02-06T21:31:03.423Z,26.23
2023-02-06T21:33:37.569Z,24.97
2023-02-06T21:36:14.183Z,24.30
2023-02-06T21:38:49.246Z,24.63
2023-02-06T21:41:24.720Z,24.90
2023-02-06T21:43:59.680Z,26.10
2023-02-06T21:46:33.395Z,26.53
2023-02-06T21:49:09.219Z,24.70
2023-02-06T21:51:49.153Z,25.23
2023-02-06T21:54:24.761Z,23.97
2023-02-06T21:57:07.577Z,25.27
2023-02-06T21:59:52.051Z,24.43
2023-02-06T22:02:28.520Z,25.50
2023-02-06T22:05:01.768Z,25.57
2023-02-06T22:07:37.516Z,26.30
2023-02-06T22:10:11.296Z,26.20
2023-02-06T22:12:44.441Z,26.80
2023-02-06T22:15:17.867Z,27.07
2023-02-06T22:17:50.953Z,28.40
2023-02-06T22:20:24.060Z,28.80
2023-02-06T22:23:00.891Z,29.57
2023-02-06T22:25:36.445Z,28.10
2023-02-06T22:28:09.752Z,28.43
2023-02-06T22:30:42.764Z,29.23
2023-02-06T22:33:18.375Z,28.27
2023-02-06T22:35:54.899Z,28.90
2023-02-06T22:38:30.649Z,27.07
2023-02-06T22:41:04.945Z,27.17
2023-02-06T22:43:41.408Z,26.73
2023-02-06T22:46:18.834Z,28.17
2023-02-06T22:48:54.612Z,27.30
2023-02-06T22:51:27.883Z,28.00
2023-02-06T22:54:03.662Z,25.93
2023-02-06T22:56:40.097Z,26.90
2023-02-06T22:59:16.970Z,26.67
2023-02-06T23:01:54.866Z,25.97
2023-02-06T23:04:28.707Z,25.77
2023-02-06T23:07:04.940Z,25.93
2023-02-06T23:09:39.816Z,25.03
2023-02-06T23:12:13.783Z,25.40
2023-02-06T23:14:48.599Z,25.37
2023-02-06T23:17:21.807Z,24.93
2023-02-06T23:19:55.255Z,26.23
2023-02-06T23:22:31.298Z,23.97
2023-02-06T23:25:10.272Z,23.67
2023-02-06T23:27:46.626Z,22.97
2023-02-06T23:30:20.628Z,23.63
2023-02-06T23:33:10.585Z,22.57
2023-02-06T23:35:51.160Z,23.37
2023-02-06T23:38:33.998Z,23.30
2023-02-06T23:41:19.811Z,22.57
2023-02-06T23:43:56.099Z,22.27
2023-02-06T23:46:34.878Z,23.03
2023-02-06T23:49:12.428Z,24.57
2023-02-06T23:51:57.717Z,24.03
2023-02-06T23:54:38.442Z,24.13
2023-02-06T23:57:15.373Z,22.40
2023-02-06T23:59:51.662Z,23.70
